sensor_id;sensor_type;location;lat;lon;timestamp;P1;durP1;ratioP1;P2;durP2;ratioP2
70605;SDS011;58173;52.500;5.494;2024-03-06T00:00:16;33.80;;;14.00;;
70605;SDS011;58173;52.500;5.494;2024-03-06T00:02:44;32.22;;;13.60;;
70605;SDS011;58173;52.500;5.494;2024-03-06T00:05:11;35.03;;;14.80;;
70605;SDS011;58173;52.500;5.494;2024-03-06T00:07:39;32.38;;;14.43;;
70605;SDS011;58173;52.500;5.494;2024-03-06T00:10:06;36.33;;;14.65;;
70605;SDS011;58173;52.500;5.494;2024-03-06T00:12:34;34.58;;;14.65;;
70605;SDS011;58173;52.500;5.494;2024-03-06T00:15:01;37.00;;;14.30;;
70605;SDS011;58173;52.500;5.494;2024-03-06T00:17:29;35.70;;;15.70;;
70605;SDS011;58173;52.500;5.494;2024-03-06T00:19:56;33.10;;;14.25;;
70605;SDS011;58173;52.500;5.494;2024-03-06T00:22:23;34.88;;;14.57;;
70605;SDS011;58173;52.500;5.494;2024-03-06T00:24:51;34.97;;;14.63;;
70605;SDS011;58173;52.500;5.494;2024-03-06T00:27:18;36.45;;;14.75;;
70605;SDS011;58173;52.500;5.494;2024-03-06T00:29:45;35.70;;;15.07;;
70605;SDS011;58173;52.500;5.494;2024-03-06T00:32:12;39.92;;;15.25;;
70605;SDS011;58173;52.500;5.494;2024-03-06T00:34:40;33.95;;;14.48;;
70605;SDS011;58173;52.500;5.494;2024-03-06T00:37:07;34.63;;;15.77;;
70605;SDS011;58173;52.500;5.494;2024-03-06T00:39:34;36.78;;;15.80;;
70605;SDS011;58173;52.500;5.494;2024-03-06T00:42:02;36.67;;;15.10;;
70605;SDS011;58173;52.500;5.494;2024-03-06T00:44:29;38.72;;;15.15;;
70605;SDS011;58173;52.500;5.494;2024-03-06T00:46:56;35.42;;;13.90;;
70605;SDS011;58173;52.500;5.494;2024-03-06T00:49:24;38.38;;;15.10;;
70605;SDS011;58173;52.500;5.494;2024-03-06T00:51:53;37.20;;;15.20;;
70605;SDS011;58173;52.500;5.494;2024-03-06T00:54:20;39.65;;;16.33;;
70605;SDS011;58173;52.500;5.494;2024-03-06T00:56:47;38.90;;;15.32;;
70605;SDS011;58173;52.500;5.494;2024-03-06T00:59:14;37.45;;;15.48;;
70605;SDS011;58173;52.500;5.494;2024-03-06T01:01:42;38.85;;;15.35;;
70605;SDS011;58173;52.500;5.494;2024-03-06T01:04:09;38.95;;;16.13;;
70605;SDS011;58173;52.500;5.494;2024-03-06T01:06:36;41.47;;;15.85;;
70605;SDS011;58173;52.500;5.494;2024-03-06T01:09:04;38.75;;;15.60;;
70605;SDS011;58173;52.500;5.494;2024-03-06T01:11:31;39.67;;;16.20;;
70605;SDS011;58173;52.500;5.494;2024-03-06T01:13:58;40.05;;;16.45;;
70605;SDS011;58173;52.500;5.494;2024-03-06T01:16:25;43.58;;;16.10;;
70605;SDS011;58173;52.500;5.494;2024-03-06T01:18:53;39.13;;;16.05;;
70605;SDS011;58173;52.500;5.494;2024-03-06T01:21:20;38.63;;;15.57;;
70605;SDS011;58173;52.500;5.494;2024-03-06T01:23:47;41.55;;;16.20;;
70605;SDS011;58173;52.500;5.494;2024-03-06T01:26:14;36.22;;;15.52;;
70605;SDS011;58173;52.500;5.494;2024-03-06T01:28:43;40.08;;;15.90;;
70605;SDS011;58173;52.500;5.494;2024-03-06T01:31:10;37.55;;;15.10;;
70605;SDS011;58173;52.500;5.494;2024-03-06T01:33:38;40.78;;;16.63;;
70605;SDS011;58173;52.500;5.494;2024-03-06T01:36:05;40.92;;;15.75;;
70605;SDS011;58173;52.500;5.494;2024-03-06T01:38:32;39.35;;;15.80;;
70605;SDS011;58173;52.500;5.494;2024-03-06T01:40:59;38.92;;;15.43;;
70605;SDS011;58173;52.500;5.494;2024-03-06T01:43:26;40.30;;;16.20;;
70605;SDS011;58173;52.500;5.494;2024-03-06T01:45:54;41.38;;;15.85;;
70605;SDS011;58173;52.500;5.494;2024-03-06T01:48:28;38.83;;;15.45;;
70605;SDS011;58173;52.500;5.494;2024-03-06T01:50:58;43.92;;;16.27;;
70605;SDS011;58173;52.500;5.494;2024-03-06T01:53:27;39.50;;;16.20;;
70605;SDS011;58173;52.500;5.494;2024-03-06T01:55:59;39.95;;;15.90;;
70605;SDS011;58173;52.500;5.494;2024-03-06T01:58:26;44.38;;;15.63;;
70605;SDS011;58173;52.500;5.494;2024-03-06T02:00:54;40.42;;;16.15;;
70605;SDS011;58173;52.500;5.494;2024-03-06T02:03:22;38.47;;;16.48;;
70605;SDS011;58173;52.500;5.494;2024-03-06T02:05:49;40.85;;;15.98;;
70605;SDS011;58173;52.500;5.494;2024-03-06T02:08:17;39.67;;;15.18;;
70605;SDS011;58173;52.500;5.494;2024-03-06T02:10:45;43.45;;;16.50;;
70605;SDS011;58173;52.500;5.494;2024-03-06T02:13:13;40.60;;;16.40;;
70605;SDS011;58173;52.500;5.494;2024-03-06T02:15:41;38.55;;;15.77;;
70605;SDS011;58173;52.500;5.494;2024-03-06T02:18:08;37.67;;;15.32;;
70605;SDS011;58173;52.500;5.494;2024-03-06T02:20:39;42.22;;;15.98;;
70605;SDS011;58173;52.500;5.494;2024-03-06T02:23:07;40.55;;;16.27;;
70605;SDS011;58173;52.500;5.494;2024-03-06T02:25:35;41.63;;;16.55;;
70605;SDS011;58173;52.500;5.494;2024-03-06T02:28:02;42.88;;;16.45;;
70605;SDS011;58173;52.500;5.494;2024-03-06T02:30:30;39.50;;;16.02;;
70605;SDS011;58173;52.500;5.494;2024-03-06T02:33:03;37.97;;;15.90;;
70605;SDS011;58173;52.500;5.494;2024-03-06T02:35:30;41.97;;;16.50;;
70605;SDS011;58173;52.500;5.494;2024-03-06T02:37:58;39.38;;;15.77;;
70605;SDS011;58173;52.500;5.494;2024-03-06T02:40:26;43.67;;;16.05;;
70605;SDS011;58173;52.500;5.494;2024-03-06T02:42:53;41.50;;;15.95;;
70605;SDS011;58173;52.500;5.494;2024-03-06T02:45:20;41.75;;;17.38;;
70605;SDS011;58173;52.500;5.494;2024-03-06T02:47:47;46.78;;;17.05;;
70605;SDS011;58173;52.500;5.494;2024-03-06T02:50:15;45.97;;;17.88;;
70605;SDS011;58173;52.500;5.494;2024-03-06T02:52:42;46.50;;;17.23;;
70605;SDS011;58173;52.500;5.494;2024-03-06T02:55:09;48.25;;;17.65;;
70605;SDS011;58173;52.500;5.494;2024-03-06T02:57:36;49.00;;;17.85;;
70605;SDS011;58173;52.500;5.494;2024-03-06T03:00:04;50.45;;;18.98;;
70605;SDS011;58173;52.500;5.494;2024-03-06T03:02:31;45.50;;;18.60;;
70605;SDS011;58173;52.500;5.494;2024-03-06T03:04:58;48.63;;;18.00;;
70605;SDS011;58173;52.500;5.494;2024-03-06T03:07:27;45.85;;;18.40;;
70605;SDS011;58173;52.500;5.494;2024-03-06T03:09:54;50.13;;;18.23;;
70605;SDS011;58173;52.500;5.494;2024-03-06T03:12:21;52.75;;;18.95;;
70605;SDS011;58173;52.500;5.494;2024-03-06T03:14:48;47.17;;;18.77;;
70605;SDS011;58173;52.500;5.494;2024-03-06T03:17:18;51.38;;;18.73;;
70605;SDS011;58173;52.500;5.494;2024-03-06T03:19:48;48.17;;;18.13;;
70605;SDS011;58173;52.500;5.494;2024-03-06T03:22:15;53.67;;;19.05;;
70605;SDS011;58173;52.500;5.494;2024-03-06T03:24:42;50.30;;;19.50;;
70605;SDS011;58173;52.500;5.494;2024-03-06T03:27:10;54.25;;;20.05;;
70605;SDS011;58173;52.500;5.494;2024-03-06T03:29:37;51.10;;;18.95;;
70605;SDS011;58173;52.500;5.494;2024-03-06T03:32:04;54.78;;;20.73;;
70605;SDS011;58173;52.500;5.494;2024-03-06T03:34:33;51.65;;;19.88;;
70605;SDS011;58173;52.500;5.494;2024-03-06T03:37:00;58.30;;;20.40;;
70605;SDS011;58173;52.500;5.494;2024-03-06T03:39:28;57.88;;;20.15;;
70605;SDS011;58173;52.500;5.494;2024-03-06T03:41:55;52.13;;;21.20;;
70605;SDS011;58173;52.500;5.494;2024-03-06T03:44:23;57.40;;;21.13;;
70605;SDS011;58173;52.500;5.494;2024-03-06T03:46:50;56.28;;;19.80;;
70605;SDS011;58173;52.500;5.494;2024-03-06T03:49:17;57.75;;;20.95;;
70605;SDS011;58173;52.500;5.494;2024-03-06T03:51:45;56.90;;;20.33;;
70605;SDS011;58173;52.500;5.494;2024-03-06T03:54:13;57.38;;;20.95;;
70605;SDS011;58173;52.500;5.494;2024-03-06T03:56:40;56.35;;;20.67;;
70605;SDS011;58173;52.500;5.494;2024-03-06T03:59:07;57.28;;;20.45;;
70605;SDS011;58173;52.500;5.494;2024-03-06T04:01:35;61.15;;;20.98;;
70605;SDS011;58173;52.500;5.494;2024-03-06T04:04:02;56.33;;;20.88;;
70605;SDS011;58173;52.500;5.494;2024-03-06T04:06:29;55.08;;;18.45;;
70605;SDS011;58173;52.500;5.494;2024-03-06T04:08:56;60.55;;;20.92;;
70605;SDS011;58173;52.500;5.494;2024-03-06T04:11:25;57.95;;;20.65;;
70605;SDS011;58173;52.500;5.494;2024-03-06T04:13:52;56.70;;;21.25;;
70605;SDS011;58173;52.500;5.494;2024-03-06T04:16:19;57.78;;;21.38;;
70605;SDS011;58173;52.500;5.494;2024-03-06T04:18:46;63.42;;;21.83;;
70605;SDS011;58173;52.500;5.494;2024-03-06T04:21:14;58.13;;;21.65;;
70605;SDS011;58173;52.500;5.494;2024-03-06T04:23:42;56.30;;;20.55;;
70605;SDS011;58173;52.500;5.494;2024-03-06T04:26:10;58.42;;;21.00;;
70605;SDS011;58173;52.500;5.494;2024-03-06T04:28:37;67.35;;;22.17;;
70605;SDS011;58173;52.500;5.494;2024-03-06T04:31:05;53.67;;;20.88;;
70605;SDS011;58173;52.500;5.494;2024-03-06T04:33:32;60.97;;;20.85;;
70605;SDS011;58173;52.500;5.494;2024-03-06T04:36:00;59.30;;;20.50;;
70605;SDS011;58173;52.500;5.494;2024-03-06T04:38:28;62.33;;;21.27;;
70605;SDS011;58173;52.500;5.494;2024-03-06T04:40:56;53.35;;;20.92;;
70605;SDS011;58173;52.500;5.494;2024-03-06T04:43:23;63.67;;;21.38;;
70605;SDS011;58173;52.500;5.494;2024-03-06T04:45:50;58.53;;;20.65;;
70605;SDS011;58173;52.500;5.494;2024-03-06T04:48:17;56.13;;;20.15;;
70605;SDS011;58173;52.500;5.494;2024-03-06T04:50:45;63.83;;;20.75;;
70605;SDS011;58173;52.500;5.494;2024-03-06T04:53:12;67.40;;;21.83;;
70605;SDS011;58173;52.500;5.494;2024-03-06T04:55:39;65.25;;;21.33;;
70605;SDS011;58173;52.500;5.494;2024-03-06T04:58:07;60.80;;;21.40;;
70605;SDS011;58173;52.500;5.494;2024-03-06T05:00:34;57.63;;;20.17;;
70605;SDS011;58173;52.500;5.494;2024-03-06T05:03:02;56.42;;;21.35;;
70605;SDS011;58173;52.500;5.494;2024-03-06T05:05:46;53.55;;;20.10;;
70605;SDS011;58173;52.500;5.494;2024-03-06T05:08:31;57.65;;;20.58;;
70605;SDS011;58173;52.500;5.494;2024-03-06T05:11:16;54.90;;;19.67;;
70605;SDS011;58173;52.500;5.494;2024-03-06T05:14:01;55.35;;;19.55;;
70605;SDS011;58173;52.500;5.494;2024-03-06T05:16:46;54.63;;;21.42;;
70605;SDS011;58173;52.500;5.494;2024-03-06T05:19:31;51.00;;;20.05;;
70605;SDS011;58173;52.500;5.494;2024-03-06T05:22:16;57.88;;;21.58;;
70605;SDS011;58173;52.500;5.494;2024-03-06T05:25:00;54.40;;;21.10;;
70605;SDS011;58173;52.500;5.494;2024-03-06T05:27:45;57.67;;;19.42;;
70605;SDS011;58173;52.500;5.494;2024-03-06T05:30:30;56.17;;;20.60;;
70605;SDS011;58173;52.500;5.494;2024-03-06T05:33:15;50.92;;;19.55;;
70605;SDS011;58173;52.500;5.494;2024-03-06T05:35:59;55.88;;;20.38;;
70605;SDS011;58173;52.500;5.494;2024-03-06T05:38:45;52.35;;;19.25;;
70605;SDS011;58173;52.500;5.494;2024-03-06T05:41:31;51.30;;;18.35;;
70605;SDS011;58173;52.500;5.494;2024-03-06T05:44:16;53.03;;;19.02;;
70605;SDS011;58173;52.500;5.494;2024-03-06T05:47:01;48.58;;;18.42;;
70605;SDS011;58173;52.500;5.494;2024-03-06T05:49:46;46.08;;;18.75;;
70605;SDS011;58173;52.500;5.494;2024-03-06T05:52:32;51.30;;;18.05;;
70605;SDS011;58173;52.500;5.494;2024-03-06T05:55:17;46.40;;;17.98;;
70605;SDS011;58173;52.500;5.494;2024-03-06T05:58:02;51.60;;;19.10;;
70605;SDS011;58173;52.500;5.494;2024-03-06T06:00:34;51.58;;;19.10;;
70605;SDS011;58173;52.500;5.494;2024-03-06T06:03:01;48.78;;;18.95;;
70605;SDS011;58173;52.500;5.494;2024-03-06T06:05:29;49.50;;;18.38;;
70605;SDS011;58173;52.500;5.494;2024-03-06T06:07:56;59.25;;;19.80;;
70605;SDS011;58173;52.500;5.494;2024-03-06T06:10:23;59.47;;;19.33;;
70605;SDS011;58173;52.500;5.494;2024-03-06T06:12:51;55.92;;;19.65;;
70605;SDS011;58173;52.500;5.494;2024-03-06T06:15:19;81.80;;;21.30;;
70605;SDS011;58173;52.500;5.494;2024-03-06T06:17:46;98.22;;;22.52;;
70605;SDS011;58173;52.500;5.494;2024-03-06T06:20:14;126.53;;;22.60;;
70605;SDS011;58173;52.500;5.494;2024-03-06T06:22:43;143.48;;;22.60;;
70605;SDS011;58173;52.500;5.494;2024-03-06T06:25:11;243.57;;;24.42;;
70605;SDS011;58173;52.500;5.494;2024-03-06T06:27:38;138.00;;;23.38;;
70605;SDS011;58173;52.500;5.494;2024-03-06T06:30:06;122.57;;;21.85;;
70605;SDS011;58173;52.500;5.494;2024-03-06T06:32:38;116.68;;;23.70;;
70605;SDS011;58173;52.500;5.494;2024-03-06T06:35:07;372.10;;;28.67;;
70605;SDS011;58173;52.500;5.494;2024-03-06T06:37:35;284.55;;;27.38;;
70605;SDS011;58173;52.500;5.494;2024-03-06T06:40:03;160.57;;;22.85;;
70605;SDS011;58173;52.500;5.494;2024-03-06T06:42:33;123.30;;;21.85;;
70605;SDS011;58173;52.500;5.494;2024-03-06T06:45:00;88.95;;;22.58;;
70605;SDS011;58173;52.500;5.494;2024-03-06T06:47:27;88.32;;;21.23;;
70605;SDS011;58173;52.500;5.494;2024-03-06T06:49:54;68.28;;;20.65;;
70605;SDS011;58173;52.500;5.494;2024-03-06T06:52:22;109.32;;;22.38;;
70605;SDS011;58173;52.500;5.494;2024-03-06T06:54:49;129.70;;;22.45;;
70605;SDS011;58173;52.500;5.494;2024-03-06T06:57:17;209.82;;;22.70;;
70605;SDS011;58173;52.500;5.494;2024-03-06T06:59:44;269.60;;;22.80;;
70605;SDS011;58173;52.500;5.494;2024-03-06T07:02:12;173.65;;;23.20;;
70605;SDS011;58173;52.500;5.494;2024-03-06T07:04:39;182.18;;;22.77;;
70605;SDS011;58173;52.500;5.494;2024-03-06T07:07:06;119.13;;;21.80;;
70605;SDS011;58173;52.500;5.494;2024-03-06T07:09:34;148.20;;;22.00;;
70605;SDS011;58173;52.500;5.494;2024-03-06T07:12:01;177.27;;;22.38;;
70605;SDS011;58173;52.500;5.494;2024-03-06T07:14:29;150.15;;;23.05;;
70605;SDS011;58173;52.500;5.494;2024-03-06T07:16:56;194.77;;;22.13;;
70605;SDS011;58173;52.500;5.494;2024-03-06T07:19:23;170.25;;;22.75;;
70605;SDS011;58173;52.500;5.494;2024-03-06T07:21:51;228.93;;;23.05;;
70605;SDS011;58173;52.500;5.494;2024-03-06T07:24:19;138.52;;;21.83;;
70605;SDS011;58173;52.500;5.494;2024-03-06T07:26:46;228.57;;;25.23;;
70605;SDS011;58173;52.500;5.494;2024-03-06T07:29:14;244.52;;;23.73;;
70605;SDS011;58173;52.500;5.494;2024-03-06T07:31:41;220.75;;;23.75;;
70605;SDS011;58173;52.500;5.494;2024-03-06T07:34:10;143.02;;;22.45;;
70605;SDS011;58173;52.500;5.494;2024-03-06T07:36:38;219.32;;;22.33;;
70605;SDS011;58173;52.500;5.494;2024-03-06T07:39:05;161.73;;;21.23;;
70605;SDS011;58173;52.500;5.494;2024-03-06T07:41:32;235.00;;;23.40;;
70605;SDS011;58173;52.500;5.494;2024-03-06T07:43:59;204.90;;;22.38;;
70605;SDS011;58173;52.500;5.494;2024-03-06T07:46:27;124.68;;;19.70;;
70605;SDS011;58173;52.500;5.494;2024-03-06T07:48:54;177.65;;;21.75;;
70605;SDS011;58173;52.500;5.494;2024-03-06T07:51:21;146.02;;;22.35;;
70605;SDS011;58173;52.500;5.494;2024-03-06T07:53:48;89.68;;;20.92;;
70605;SDS011;58173;52.500;5.494;2024-03-06T07:56:17;69.53;;;17.48;;
70605;SDS011;58173;52.500;5.494;2024-03-06T07:58:44;56.22;;;19.08;;
70605;SDS011;58173;52.500;5.494;2024-03-06T08:01:11;71.25;;;17.13;;
70605;SDS011;58173;52.500;5.494;2024-03-06T08:03:41;79.10;;;19.88;;
70605;SDS011;58173;52.500;5.494;2024-03-06T08:06:09;62.33;;;16.88;;
70605;SDS011;58173;52.500;5.494;2024-03-06T08:08:42;76.93;;;18.05;;
70605;SDS011;58173;52.500;5.494;2024-03-06T08:11:11;72.03;;;19.40;;
70605;SDS011;58173;52.500;5.494;2024-03-06T08:13:38;56.15;;;18.13;;
70605;SDS011;58173;52.500;5.494;2024-03-06T08:16:06;54.20;;;19.05;;
70605;SDS011;58173;52.500;5.494;2024-03-06T08:18:33;50.42;;;20.20;;
70605;SDS011;58173;52.500;5.494;2024-03-06T08:21:01;45.70;;;18.30;;
70605;SDS011;58173;52.500;5.494;2024-03-06T08:23:30;56.88;;;19.83;;
70605;SDS011;58173;52.500;5.494;2024-03-06T08:25:57;48.90;;;18.40;;
70605;SDS011;58173;52.500;5.494;2024-03-06T08:28:26;52.50;;;19.05;;
70605;SDS011;58173;52.500;5.494;2024-03-06T08:30:53;47.13;;;19.02;;
70605;SDS011;58173;52.500;5.494;2024-03-06T08:33:20;47.05;;;17.35;;
70605;SDS011;58173;52.500;5.494;2024-03-06T08:35:49;57.20;;;20.38;;
70605;SDS011;58173;52.500;5.494;2024-03-06T08:38:16;60.85;;;21.58;;
70605;SDS011;58173;52.500;5.494;2024-03-06T08:40:44;52.63;;;20.30;;
70605;SDS011;58173;52.500;5.494;2024-03-06T08:43:14;45.22;;;19.45;;
70605;SDS011;58173;52.500;5.494;2024-03-06T08:45:42;49.53;;;21.10;;
70605;SDS011;58173;52.500;5.494;2024-03-06T08:48:09;55.25;;;20.85;;
70605;SDS011;58173;52.500;5.494;2024-03-06T08:50:38;46.63;;;19.50;;
70605;SDS011;58173;52.500;5.494;2024-03-06T08:53:05;43.42;;;17.08;;
70605;SDS011;58173;52.500;5.494;2024-03-06T08:55:33;41.55;;;18.05;;
70605;SDS011;58173;52.500;5.494;2024-03-06T08:58:00;43.88;;;18.35;;
70605;SDS011;58173;52.500;5.494;2024-03-06T09:00:27;40.10;;;18.08;;
70605;SDS011;58173;52.500;5.494;2024-03-06T09:02:55;44.35;;;18.23;;
70605;SDS011;58173;52.500;5.494;2024-03-06T09:05:22;44.15;;;18.67;;
70605;SDS011;58173;52.500;5.494;2024-03-06T09:07:49;42.40;;;19.55;;
70605;SDS011;58173;52.500;5.494;2024-03-06T09:10:17;42.28;;;18.60;;
70605;SDS011;58173;52.500;5.494;2024-03-06T09:12:45;41.33;;;18.38;;
70605;SDS011;58173;52.500;5.494;2024-03-06T09:15:14;35.55;;;15.48;;
70605;SDS011;58173;52.500;5.494;2024-03-06T09:17:41;40.05;;;18.20;;
70605;SDS011;58173;52.500;5.494;2024-03-06T09:20:09;37.95;;;17.25;;
70605;SDS011;58173;52.500;5.494;2024-03-06T09:22:38;37.60;;;17.42;;
70605;SDS011;58173;52.500;5.494;2024-03-06T09:25:06;39.85;;;17.98;;
70605;SDS011;58173;52.500;5.494;2024-03-06T09:27:34;40.08;;;17.70;;
70605;SDS011;58173;52.500;5.494;2024-03-06T09:30:01;40.78;;;18.20;;
70605;SDS011;58173;52.500;5.494;2024-03-06T09:32:29;38.40;;;16.92;;
70605;SDS011;58173;52.500;5.494;2024-03-06T09:34:58;36.22;;;16.67;;
70605;SDS011;58173;52.500;5.494;2024-03-06T09:37:26;37.47;;;17.25;;
70605;SDS011;58173;52.500;5.494;2024-03-06T09:39:54;40.22;;;18.17;;
70605;SDS011;58173;52.500;5.494;2024-03-06T09:42:22;29.05;;;13.02;;
70605;SDS011;58173;52.500;5.494;2024-03-06T09:44:49;43.53;;;17.48;;
70605;SDS011;58173;52.500;5.494;2024-03-06T09:47:19;38.85;;;16.42;;
70605;SDS011;58173;52.500;5.494;2024-03-06T09:49:51;29.67;;;13.52;;
70605;SDS011;58173;52.500;5.494;2024-03-06T09:52:19;27.23;;;11.45;;
70605;SDS011;58173;52.500;5.494;2024-03-06T09:54:47;37.92;;;17.00;;
70605;SDS011;58173;52.500;5.494;2024-03-06T09:57:15;37.25;;;16.38;;
70605;SDS011;58173;52.500;5.494;2024-03-06T09:59:42;33.05;;;15.43;;
70605;SDS011;58173;52.500;5.494;2024-03-06T10:02:18;33.42;;;15.45;;
70605;SDS011;58173;52.500;5.494;2024-03-06T10:04:46;21.75;;;9.85;;
70605;SDS011;58173;52.500;5.494;2024-03-06T10:07:13;30.08;;;14.20;;
70605;SDS011;58173;52.500;5.494;2024-03-06T10:09:41;29.73;;;14.27;;
70605;SDS011;58173;52.500;5.494;2024-03-06T10:12:11;31.17;;;14.35;;
70605;SDS011;58173;52.500;5.494;2024-03-06T10:14:48;31.25;;;13.63;;
70605;SDS011;58173;52.500;5.494;2024-03-06T10:17:18;30.30;;;13.65;;
70605;SDS011;58173;52.500;5.494;2024-03-06T10:19:49;29.38;;;14.48;;
70605;SDS011;58173;52.500;5.494;2024-03-06T10:22:18;24.25;;;11.65;;
70605;SDS011;58173;52.500;5.494;2024-03-06T10:24:46;28.90;;;14.07;;
70605;SDS011;58173;52.500;5.494;2024-03-06T10:27:16;30.35;;;14.23;;
70605;SDS011;58173;52.500;5.494;2024-03-06T10:29:44;30.00;;;13.38;;
70605;SDS011;58173;52.500;5.494;2024-03-06T10:32:15;30.77;;;13.63;;
70605;SDS011;58173;52.500;5.494;2024-03-06T10:34:47;27.00;;;12.02;;
70605;SDS011;58173;52.500;5.494;2024-03-06T10:37:14;29.38;;;13.88;;
70605;SDS011;58173;52.500;5.494;2024-03-06T10:39:42;28.88;;;13.70;;
70605;SDS011;58173;52.500;5.494;2024-03-06T10:42:12;23.58;;;9.93;;
70605;SDS011;58173;52.500;5.494;2024-03-06T10:44:44;28.17;;;13.10;;
70605;SDS011;58173;52.500;5.494;2024-03-06T10:47:16;29.45;;;12.10;;
70605;SDS011;58173;52.500;5.494;2024-03-06T10:49:44;29.17;;;13.65;;
70605;SDS011;58173;52.500;5.494;2024-03-06T10:52:12;29.80;;;12.82;;
70605;SDS011;58173;52.500;5.494;2024-03-06T10:54:43;28.50;;;13.00;;
70605;SDS011;58173;52.500;5.494;2024-03-06T10:57:12;25.85;;;12.27;;
70605;SDS011;58173;52.500;5.494;2024-03-06T10:59:41;30.80;;;14.02;;
70605;SDS011;58173;52.500;5.494;2024-03-06T11:02:09;30.23;;;13.57;;
70605;SDS011;58173;52.500;5.494;2024-03-06T11:04:39;29.13;;;13.30;;
70605;SDS011;58173;52.500;5.494;2024-03-06T11:07:07;29.52;;;14.13;;
70605;SDS011;58173;52.500;5.494;2024-03-06T11:09:39;27.55;;;13.88;;
70605;SDS011;58173;52.500;5.494;2024-03-06T11:12:07;30.50;;;13.82;;
70605;SDS011;58173;52.500;5.494;2024-03-06T11:14:38;28.95;;;13.90;;
70605;SDS011;58173;52.500;5.494;2024-03-06T11:17:08;28.58;;;13.00;;
70605;SDS011;58173;52.500;5.494;2024-03-06T11:28:22;18.63;;;7.97;;
70605;SDS011;58173;52.500;5.494;2024-03-06T11:33:44;26.63;;;12.48;;
70605;SDS011;58173;52.500;5.494;2024-03-06T11:39:04;25.63;;;11.30;;
70605;SDS011;58173;52.500;5.494;2024-03-06T11:44:02;28.60;;;13.48;;
70605;SDS011;58173;52.500;5.494;2024-03-06T11:49:16;26.65;;;11.65;;
70605;SDS011;58173;52.500;5.494;2024-03-06T11:51:47;25.27;;;12.90;;
70605;SDS011;58173;52.500;5.494;2024-03-06T11:54:14;28.42;;;12.63;;
70605;SDS011;58173;52.500;5.494;2024-03-06T11:56:44;26.75;;;12.25;;
70605;SDS011;58173;52.500;5.494;2024-03-06T12:01:41;25.95;;;12.25;;
70605;SDS011;58173;52.500;5.494;2024-03-06T12:04:08;25.88;;;12.25;;
70605;SDS011;58173;52.500;5.494;2024-03-06T12:06:36;28.45;;;12.70;;
70605;SDS011;58173;52.500;5.494;2024-03-06T12:09:05;25.83;;;11.95;;
70605;SDS011;58173;52.500;5.494;2024-03-06T12:11:37;22.38;;;11.25;;
70605;SDS011;58173;52.500;5.494;2024-03-06T12:14:04;26.02;;;12.30;;
70605;SDS011;58173;52.500;5.494;2024-03-06T12:16:32;25.23;;;12.50;;
70605;SDS011;58173;52.500;5.494;2024-03-06T12:18:59;24.23;;;11.77;;
70605;SDS011;58173;52.500;5.494;2024-03-06T12:21:32;26.33;;;12.60;;
70605;SDS011;58173;52.500;5.494;2024-03-06T12:24:03;24.65;;;11.82;;
70605;SDS011;58173;52.500;5.494;2024-03-06T12:26:31;25.08;;;11.95;;
70605;SDS011;58173;52.500;5.494;2024-03-06T12:29:05;22.10;;;10.93;;
70605;SDS011;58173;52.500;5.494;2024-03-06T12:31:33;24.35;;;10.82;;
70605;SDS011;58173;52.500;5.494;2024-03-06T12:34:01;21.90;;;11.02;;
70605;SDS011;58173;52.500;5.494;2024-03-06T12:36:30;21.50;;;10.90;;
70605;SDS011;58173;52.500;5.494;2024-03-06T12:38:59;21.45;;;10.38;;
70605;SDS011;58173;52.500;5.494;2024-03-06T12:41:26;19.63;;;9.30;;
70605;SDS011;58173;52.500;5.494;2024-03-06T12:43:54;20.92;;;9.77;;
70605;SDS011;58173;52.500;5.494;2024-03-06T12:46:22;19.08;;;10.15;;
70605;SDS011;58173;52.500;5.494;2024-03-06T12:48:50;24.65;;;10.68;;
70605;SDS011;58173;52.500;5.494;2024-03-06T12:51:17;20.00;;;9.02;;
70605;SDS011;58173;52.500;5.494;2024-03-06T12:53:45;19.75;;;9.13;;
70605;SDS011;58173;52.500;5.494;2024-03-06T12:56:12;21.55;;;9.40;;
70605;SDS011;58173;52.500;5.494;2024-03-06T12:58:39;20.65;;;10.40;;
70605;SDS011;58173;52.500;5.494;2024-03-06T13:01:06;20.73;;;10.60;;
70605;SDS011;58173;52.500;5.494;2024-03-06T13:03:34;20.52;;;9.95;;
70605;SDS011;58173;52.500;5.494;2024-03-06T13:06:01;20.25;;;10.45;;
70605;SDS011;58173;52.500;5.494;2024-03-06T13:08:28;19.98;;;9.48;;
70605;SDS011;58173;52.500;5.494;2024-03-06T13:10:55;18.05;;;9.60;;
70605;SDS011;58173;52.500;5.494;2024-03-06T13:13:23;20.58;;;10.05;;
70605;SDS011;58173;52.500;5.494;2024-03-06T13:15:50;20.60;;;10.27;;
70605;SDS011;58173;52.500;5.494;2024-03-06T13:18:17;19.30;;;9.88;;
70605;SDS011;58173;52.500;5.494;2024-03-06T13:20:45;19.02;;;9.60;;
70605;SDS011;58173;52.500;5.494;2024-03-06T13:23:12;21.00;;;10.23;;
70605;SDS011;58173;52.500;5.494;2024-03-06T13:25:39;21.23;;;10.40;;
70605;SDS011;58173;52.500;5.494;2024-03-06T13:28:07;22.85;;;10.45;;
70605;SDS011;58173;52.500;5.494;2024-03-06T13:30:35;20.48;;;10.43;;
70605;SDS011;58173;52.500;5.494;2024-03-06T13:33:02;21.10;;;10.05;;
70605;SDS011;58173;52.500;5.494;2024-03-06T13:35:29;20.27;;;9.93;;
70605;SDS011;58173;52.500;5.494;2024-03-06T13:37:56;19.05;;;8.65;;
70605;SDS011;58173;52.500;5.494;2024-03-06T13:40:24;19.75;;;9.52;;
70605;SDS011;58173;52.500;5.494;2024-03-06T13:42:53;19.05;;;8.68;;
70605;SDS011;58173;52.500;5.494;2024-03-06T13:45:20;19.17;;;8.93;;
70605;SDS011;58173;52.500;5.494;2024-03-06T13:47:47;18.95;;;9.07;;
70605;SDS011;58173;52.500;5.494;2024-03-06T13:50:16;18.70;;;8.75;;
70605;SDS011;58173;52.500;5.494;2024-03-06T13:52:43;20.02;;;8.98;;
70605;SDS011;58173;52.500;5.494;2024-03-06T13:55:10;18.63;;;8.57;;
70605;SDS011;58173;52.500;5.494;2024-03-06T13:57:39;17.23;;;8.52;;
70605;SDS011;58173;52.500;5.494;2024-03-06T14:00:07;18.48;;;8.23;;
70605;SDS011;58173;52.500;5.494;2024-03-06T14:02:44;18.50;;;8.88;;
70605;SDS011;58173;52.500;5.494;2024-03-06T14:05:15;18.83;;;9.20;;
70605;SDS011;58173;52.500;5.494;2024-03-06T14:07:42;20.50;;;9.35;;
70605;SDS011;58173;52.500;5.494;2024-03-06T14:10:10;18.73;;;8.80;;
70605;SDS011;58173;52.500;5.494;2024-03-06T14:12:38;17.23;;;7.97;;
70605;SDS011;58173;52.500;5.494;2024-03-06T14:15:05;20.98;;;9.63;;
70605;SDS011;58173;52.500;5.494;2024-03-06T14:17:39;21.23;;;9.45;;
70605;SDS011;58173;52.500;5.494;2024-03-06T14:20:07;20.23;;;9.13;;
70605;SDS011;58173;52.500;5.494;2024-03-06T14:22:34;20.58;;;9.88;;
70605;SDS011;58173;52.500;5.494;2024-03-06T14:25:02;18.17;;;8.68;;
70605;SDS011;58173;52.500;5.494;2024-03-06T14:27:29;17.15;;;8.35;;
70605;SDS011;58173;52.500;5.494;2024-03-06T14:29:56;18.58;;;9.30;;
70605;SDS011;58173;52.500;5.494;2024-03-06T14:32:23;18.42;;;8.85;;
70605;SDS011;58173;52.500;5.494;2024-03-06T14:34:52;22.38;;;10.48;;
70605;SDS011;58173;52.500;5.494;2024-03-06T14:37:19;22.45;;;10.68;;
70605;SDS011;58173;52.500;5.494;2024-03-06T14:39:46;26.75;;;10.65;;
70605;SDS011;58173;52.500;5.494;2024-03-06T14:42:13;24.45;;;12.93;;
70605;SDS011;58173;52.500;5.494;2024-03-06T14:44:41;24.83;;;11.40;;
70605;SDS011;58173;52.500;5.494;2024-03-06T14:47:10;29.58;;;11.98;;
70605;SDS011;58173;52.500;5.494;2024-03-06T14:49:37;25.45;;;10.45;;
70605;SDS011;58173;52.500;5.494;2024-03-06T14:52:05;28.23;;;12.60;;